Terminal Aerodrome Forecast
Issued by NWS

Home | Current Version | Previous Version | Text Only | Print | Product List | Glossary Off
Versions: 1 2 3 4 5 6 7 8 9 10 11 12 13 14 15 16 17 18 19 20 21 22 23 24 25

295
FTUS43 KGRB 131418 AAA
TAFAUW
TAF AMD
KAUW 131418Z 1314/1412 11007KT 6SM -SN OVC030
     FM131600 10010KT 1 1/2SM -SN SCT006 OVC015
      TEMPO 1316/1319 3/4SM -SN BKN006
     FM131900 04008KT 3SM -SN OVC012
     FM140000 01007KT 4SM BR BKN022
     FM140300 36004KT P6SM SCT035=

USA.gov is the U.S. government's official web portal to all federal, state and local government web resources and services.